Airfield :
LOGIN :

Register | Disclaimer

   EN    FR    IT 

 










Legend :    VFR   Marginal VFR   IFR   Intensive IFR   Very Intensive IFR
Visi :
Ceiling :
>= 8 km
>= 3000ft
5 to 8 km
1000 to 3000 ft
1500m to 5 km
500 to 1000 ft
800 to 1500m
200 to 500 ft
< 800m
< 200 ft
Symbols :   Thunderstorms  Fog  Heavy snow  Heavy precipitations  Wind > 20 kt
SIGMETs :     Misc.  Thunderstorms  Icing  Turbulence  Mountain Waves  Volcanic Ashes







- Airport Elevation : 157 ft
- IATA code : SXF


EDDB - Berlin Schönefeld

CURRENT METAR :
  • 201750Z 27009KT 9999 FEW030 BKN064 22/15 Q1017 NOSIG

EXPIRED METARs :
  • 201720Z 27010KT 9999 FEW026 BKN071 23/15 Q1017 NOSIG
  • 201650Z 28013KT 9999 FEW026 SCT044 BKN070 23/15 Q1017 NOSIG
  • 201620Z 28011KT 9999 FEW026 BKN059 23/15 Q1017 NOSIG
  • 201550Z 28012KT 9999 FEW035 BKN048 23/15 Q1017 NOSIG
  • 201520Z 28014KT 9999 SCT044 BKN062 23/15 Q1017 NOSIG

TAF TAF EDDB
Valid from the 20 at 18:00 until the 21 at 18:00 UTC


201700Z 2018/2118 28012KT CAVOK
BECMG 2018/2021 31006KT
No reported NOTAMs for that airfield.



MET'MAP, your aeronautical weather chart ! - Copyright ORBIFLY December 2007 - Disclaimer

ORBIFLY MET'MAP TEAM :

Programming & Development : Alexandra Zaïnal
Concept & Development : Baudouin d'Aumeries
Co-Development & Prog : Marc-Olivier Méhu
Technical & hardware support : Manuel Goepfert

Contact : metmap@orbifly.com




SOURCES & CREDITS :

   NOAA